ADDS METAR Data INFO
IDs: Format: Raw Decoded Include TAF

Data at: 0900 UTC 20 Oct 2017

KIML 200853Z AUTO 17015KT 10SM CLR 14/07 A2979 RMK AO2 SLP058 T01390072 58023
KIML 200753Z AUTO 17011KT 10SM CLR 13/07 A2982 RMK AO2 SLP069 T01330067
KIML 200653Z AUTO 18009KT 10SM CLR 14/06 A2984 RMK AO2 SLP077 T01440061 402940017
KIML 200553Z AUTO 16008KT 10SM CLR 15/06 A2986 RMK AO2 SLP087 T01500056 10217 20144 58009
KIML 200453Z AUTO 16009KT 10SM CLR 16/06 A2988 RMK AO2 SLP098 T01560056
KIML 200353Z AUTO 16013KT 10SM CLR 17/06 A2989 RMK AO2 SLP106 T01720056
KIML 200253Z AUTO 16010KT 10SM CLR 17/07 A2989 RMK AO2 SLP114 T01720067 50000
KIML 200153Z AUTO 15010KT 10SM CLR 18/07 A2989 RMK AO2 SLP120 T01830067
KIML 200053Z AUTO 14010KT 10SM CLR 17/06 A2989 RMK AO2 SLP122 T01720056
KIML 192353Z AUTO 15010KT 10SM CLR 22/06 A2989 RMK AO2 SLP114 T02170056 10294 20217 56004
KIML 192253Z AUTO 17013KT 10SM CLR 25/04 A2990 RMK AO2 SLP114 T02500044
KIML 192153Z AUTO 18018G22KT 10SM CLR 28/02 A2990 RMK AO2 PK WND 16026/2106 SLP109 T02830022
KIML 192053Z AUTO 18018G22KT 10SM CLR 29/02 A2991 RMK AO2 PK WND 18027/2038 SLP109 T02890022 56030
KIML 191953Z AUTO 15015G21KT 10SM CLR 29/03 A2993 RMK AO2 PK WND 16026/1921 SLP116 T02890033
KIML 191853Z AUTO 17014G24KT 10SM CLR 28/04 A2997 RMK AO2 SLP131 T02780044
KIML 191753Z AUTO 17012G21KT 10SM CLR 26/05 A3000 RMK AO2 SLP142 T02560050 10261 20017 58018
KIML 191653Z AUTO 19005KT 10SM CLR 21/04 A3003 RMK AO2 SLP160 T02060044
KIML 191553Z AUTO 20006KT 10SM CLR 15/02 A3005 RMK AO2 SLP173 T01500022
KIML 191453Z AUTO 23003KT 10SM CLR 08/02 A3006 RMK AO2 SLP184 T00830022 55002
KIML 191353Z AUTO 24003KT 10SM CLR 03/00 A3006 RMK AO2 SLP188 T00330000
KIML 191253Z AUTO 26006KT 10SM CLR 02/M01 A3006 RMK AO2 SLP188 T00171011
KIML 191153Z AUTO 26003KT 10SM CLR 04/00 A3007 RMK AO2 SLP181 T00390000 10083 20022 56008
KIML 191053Z AUTO 26006KT 10SM CLR 02/M01 A3007 RMK AO2 SLP176 T00221006
KIML 190953Z AUTO 27004KT 10SM CLR 04/M01 A3008 RMK AO2 SLP175 T00391006
KIML 190853Z AUTO 00000KT 10SM CLR 05/00 A3009 RMK AO2 SLP178 T00500000 58002
KIML 190753Z AUTO 25003KT 10SM CLR 06/01 A3010 RMK AO2 SLP180 T00560006
KIML 190653Z AUTO 20004KT 10SM CLR 07/01 A3010 RMK AO2 SLP180 T00670006 402610056
KIML 190553Z AUTO 17003KT 10SM CLR 08/01 A3010 RMK AO2 SLP176 T00830006 10167 20072 56001
KIML 190453Z AUTO 14004KT 10SM CLR 08/01 A3010 RMK AO2 SLP178 T00780006
KIML 190353Z AUTO 13005KT 10SM CLR 08/00 A3010 RMK AO2 SLP184 T00780000
KIML 190253Z AUTO 12006KT 10SM CLR 08/M01 A3011 RMK AO2 SLP191 T00831006 51003
KIML 190153Z AUTO 14006KT 10SM CLR 09/00 A3011 RMK AO2 SLP196 T00940000
KIML 190053Z AUTO 08007KT 10SM CLR 12/M01 A3010 RMK AO2 SLP195 T01171006
KIML 182353Z AUTO 07006KT 10SM CLR 17/M01 A3010 RMK AO2 SLP187 T01671011 10261 20167 53015
KIML 182253Z AUTO 07009KT 10SM CLR 23/M04 A3008 RMK AO2 SLP174 T02281039
KIML 182153Z AUTO 06009KT 10SM CLR 24/M04 A3006 RMK AO2 SLP166 T02441039